This is the latest recevied weather packets stored in our database for station/object CT4TX-11. If no packets are shown the sender has not sent any weather packets the latest 10 day(s).
| Time | Temp. | Humidity | Pressure | Rain* | Wind** | Luminosity | Snow |
|---|---|---|---|---|---|---|---|
| 1777338265 | 30° C | 40% | 998.2 hPa | - | - | - | - |
| 1777337365 | 30° C | 41% | 998.3 hPa | - | - | - | - |
| 1777336464 | 30° C | 41% | 998.3 hPa | - | - | - | - |
| 1777335564 | 30° C | 40% | 998.3 hPa | - | - | - | - |
| 1777334669 | 30° C | 40% | 998.4 hPa | - | - | - | - |
| 1777333769 | 30° C | 39% | 998.5 hPa | - | - | - | - |
| 1777332869 | 31.11° C | 37% | 998.7 hPa | - | - | - | - |
| 1777331969 | 30.56° C | 38% | 998.9 hPa | - | - | - | - |
| 1777331068 | 30.56° C | 38% | 999 hPa | - | - | - | - |
| 1777330168 | 30° C | 39% | 999.2 hPa | - | - | - | - |
| 1777329268 | 31.67° C | 36% | 999.4 hPa | - | - | - | - |
| 1777328368 | 31.11° C | 36% | 999.5 hPa | - | - | - | - |
| 1777327468 | 30.56° C | 37% | 999.4 hPa | - | - | - | - |
| 1777326567 | 31.11° C | 37% | 999.6 hPa | - | - | - | - |
| 1777325667 | 31.11° C | 37% | 999.7 hPa | - | - | - | - |
| 1777324767 | 30.56° C | 37% | 999.6 hPa | - | - | - | - |
| 1777323867 | 29.44° C | 40% | 999.6 hPa | - | - | - | - |
| 1777322966 | 28.89° C | 40% | 999.5 hPa | - | - | - | - |
| 1777322066 | 29.44° C | 40% | 999.5 hPa | - | - | - | - |
| 1777321166 | 29.44° C | 40% | 999.5 hPa | - | - | - | - |
| 1777320266 | 29.44° C | 40% | 999.4 hPa | - | - | - | - |
| 1777319366 | 29.44° C | 39% | 999.4 hPa | - | - | - | - |
| 1777318465 | 29.44° C | 39% | 999.4 hPa | - | - | - | - |
| 1777317565 | 30.56° C | 39% | 999.3 hPa | - | - | - | - |
| 1777316665 | 30.56° C | 38% | 999.3 hPa | - | - | - | - |
* Rain since midnight (hover to see other rain measurements)
** Current wind speed in m/s (hover to see current wind gust speed)